首页
METAR-TAF:

METAR-TAF

机场 :

Rapid City Regional Airport

拉皮德城, 南达科他州, 美国

纬度: 44-02-44N, 经度: 103-03-14W, 海拔: 976米

当前天气观测

该预报发布于50分钟前的16:52 UTC
风速17节,风向
温度 33°C
湿度 30%
气压 1009 hPa
能見度: 16.1公里
天空无云

METAR: KRAP 241652Z 35017KT 10SM CLR 33/13 A2981 RMK AO2 PK WND 35026/1601 SLP057 T03330133

时间: 11:42 (17:42 UTC)

预报

该预报发布于22分钟前的17:20 UTC
预报有效从24日的 18点(UTC)到 25日的 18点(UTC)
风速12节,风向,有时为20节阵风
能見度: 10公里
天空无云
从 24日的 2000点(UTC)
风速11节,风向东北
能見度: 10公里
天空无云
从 25日的 0200点(UTC)
风速6节,风向多变
能見度: 10公里
散云层高于15000英尺

TAF: KRAP 241720Z 2418/2518 35012G20KT P6SM SKC FM242000 05011KT P6SM SKC FM250200 VRB06KT P6SM SCT150

超过4000个机场的气象观测和天气预报(METAR&TAF报告)。

可查询的气象台以黄色和红色小点在地图上表示。

将鼠标移到小点上方,可查看气象台名称。

然后点击查看天气观测和预报。

如需切换地图:点击带黑十字的绿色按钮放大地图;点击带横线的绿色按钮缩小地图;或者点击绿色箭头查看邻近地区的地图。


METAR-TAF: